Flight Track Log - Related Links

Times and Time Zones

All times are in EDT time to prevent confusion due to time zone crossing. See the EJA357 flight status page for this flight to view local times or setup timezone preferences in your user account.

Time Position Orientation Groundspeed Altitude Reporting Facility
EDT Latitude Longitude Course Direction KTS MPH feet Rate Location/Type
Mon 02:34:49 PM 41.0333 -73.7333 304° West 207 238 2,400  Level New York TRACON
Mon 02:35:43 PM 41.0667 -73.8000 304° West 234 269 4,500 3,200 Climbing New York TRACON
Mon 02:36:49 PM 41.1167 -73.8833 309° West 279 321 8,800 2,417 Climbing New York TRACON
Mon 02:39:14 PM 41.2264 -73.6875 53° Northeast 313 360 13,000 1,229 Climbing Boston Center
Mon 02:40:14 PM 41.2653 -73.5475 70° East 352 405 13,000  Level Boston Center
Mon 02:41:14 PM 41.2936 -73.4375 71° East 363 418 13,000  Level Boston Center
Mon 02:42:15 PM 41.3300 -73.2942 71° East 363 418 13,000  Level Boston Center
Mon 02:43:16 PM 41.3558 -73.1783 73° East 358 412 13,000  Level Boston Center
Mon 02:44:13 PM 41.3861 -73.0322 75° East 365 420 13,000  Level Boston Center
Mon 02:45:14 PM 41.4117 -72.9161 74° East 359 413 13,000  Level Boston Center
Mon 02:46:14 PM 41.4433 -72.7725 74° East 359 413 13,000  Level Boston Center
Mon 02:47:15 PM 41.4686 -72.6561 74° East 359 413 13,000  Level Boston Center
Mon 02:48:13 PM 41.5000 -72.5122 74° East 364 419 13,000  Level Boston Center
Mon 02:49:14 PM 41.5272 -72.3792 75° East 359 413 13,000 50 Level Boston Center
Mon 02:50:14 PM 41.5603 -72.2625 69° East 370 426 13,100 49 Climbing Boston Center
Mon 02:51:16 PM 41.5956 -72.1236 71° East 365 420 13,100  Level Boston Center
Mon 02:52:14 PM 41.6242 -72.0097 71° East 365 420 13,100  Level Boston Center
Mon 02:53:14 PM 41.6611 -71.8706 70° East 365 420 13,100  Level Boston Center
Mon 02:54:15 PM 41.6917 -71.7533 71° East 370 426 13,100  Level Boston Center
Mon 02:55:13 PM 41.7283 -71.6083 71° East 370 426 13,100  Level Boston Center
Mon 02:56:14 PM 41.7647 -71.4772 70° East 370 426 13,100  Level Boston Center
Mon 02:57:15 PM 41.7931 -71.3708 70° East 352 405 13,100 -246 Level Boston Center
Mon 02:58:16 PM 41.8250 -71.2394 72° East 331 381 12,600 -1,008 Descending Boston Center
Mon 02:59:14 PM 41.8531 -71.1358 70° East 326 375 11,100 -1,091 Descending Boston Center
Mon 02:59:44 PM 41.8833 -71.0667 60° Northeast 315 362 11,000 -67 Descending KA90
Mon 03:00:44 PM 41.9167 -70.9667 66° East 318 366 11,000  Level KA90
Mon 03:01:38 PM 41.9667 -70.8667 56° Northeast 320 368 11,000 -66 Level KA90
Mon 03:02:15 PM 41.9847 -70.8314 55° Northeast 314 361 10,900 -495 Descending Boston Center
Mon 03:03:15 PM 42.0333 -70.7322 57° Northeast 314 361 10,200 -1,169 Descending Boston Center
Mon 03:04:13 PM 42.0883 -70.6525 47° Northeast 296 341 8,600 -1,475 Descending Boston Center
Mon 03:05:13 PM 42.1522 -70.6114 26° Northeast 262 302 7,300 -1,388 Descending Boston Center
Mon 03:06:14 PM 42.2169 -70.6181 356° North 234 269 5,800 -1,537 Descending Boston Center
Mon 03:07:14 PM 42.2717 -70.6556 333° Northwest 215 247 4,200 -1,450 Descending Boston Center
Mon 03:08:14 PM 42.3286 -70.6906 336° Northwest 215 247 2,900 -645 Descending Boston Center
Mon 03:09:15 PM 42.3728 -70.7258 329° Northwest 210 242 2,900 -149 Level Boston Center
Mon 03:10:15 PM 42.3967 -70.7814 300° West 184 212 2,600 -556 Descending Boston Center
Mon 03:12:40 PM 42.3667 -70.9167 253° West 104 120 1,000 -644 Descending KA90
Mon 03:13:40 PM 42.3667 -70.9667 270° West 124 143 400 -600 Descending KA90

Login

Don't have an account? Register now (free) for customized features, flight alerts, and more!